createdAt,value
2023-04-30T00:02:07.351Z,19.20
2023-04-30T00:04:38.080Z,17.40
2023-04-30T00:07:08.388Z,17.25
2023-04-30T00:09:38.308Z,18.58
2023-04-30T00:12:08.658Z,17.33
2023-04-30T00:14:38.614Z,19.02
2023-04-30T00:17:08.958Z,18.58
2023-04-30T00:19:39.549Z,18.27
2023-04-30T00:22:10.920Z,18.08
2023-04-30T00:24:40.862Z,18.60
2023-04-30T00:27:11.198Z,17.30
2023-04-30T00:29:41.246Z,16.77
2023-04-30T00:32:12.257Z,19.90
2023-04-30T00:34:42.358Z,20.70
2023-04-30T00:37:12.959Z,19.00
2023-04-30T00:39:43.029Z,19.27
2023-04-30T00:42:13.457Z,22.10
2023-04-30T00:44:43.387Z,23.27
2023-04-30T00:47:13.811Z,21.30
2023-04-30T00:49:46.918Z,19.85
2023-04-30T00:52:17.654Z,22.48
2023-04-30T00:54:47.625Z,19.63
2023-04-30T00:57:18.146Z,19.65
2023-04-30T00:59:48.566Z,19.63
2023-04-30T01:02:19.375Z,22.48
2023-04-30T01:04:49.491Z,21.33
2023-04-30T01:07:20.047Z,16.98
2023-04-30T01:09:50.226Z,18.98
2023-04-30T01:12:39.650Z,16.45
2023-04-30T01:15:16.450Z,17.55
2023-04-30T01:18:04.927Z,21.65
2023-04-30T01:20:35.721Z,20.75
2023-04-30T01:23:27.091Z,20.45
2023-04-30T01:26:30.493Z,20.30
2023-04-30T01:29:01.708Z,20.08
2023-04-30T01:31:32.469Z,18.48
2023-04-30T01:34:02.903Z,16.05
2023-04-30T01:36:47.664Z,14.98
2023-04-30T01:39:24.184Z,16.05
2023-04-30T01:42:07.502Z,15.50
2023-04-30T01:44:52.749Z,16.00
2023-04-30T01:47:25.270Z,15.63
2023-04-30T01:50:26.111Z,21.58
2023-04-30T01:53:00.321Z,15.13
2023-04-30T01:55:46.736Z,19.02
2023-04-30T01:58:18.195Z,18.38
2023-04-30T02:00:48.759Z,19.88
2023-04-30T02:03:18.818Z,21.55
2023-04-30T02:05:50.016Z,16.30
2023-04-30T02:08:19.926Z,16.02
2023-04-30T02:10:50.291Z,18.85
2023-04-30T02:13:20.278Z,17.25
2023-04-30T02:15:50.804Z,20.20
2023-04-30T02:18:21.069Z,22.50
2023-04-30T02:20:51.583Z,24.30
2023-04-30T02:23:21.875Z,24.08
2023-04-30T02:25:52.229Z,17.55
2023-04-30T02:28:22.209Z,17.50
2023-04-30T02:30:52.831Z,20.83
2023-04-30T02:33:22.782Z,22.85
2023-04-30T02:35:53.206Z,24.80
2023-04-30T02:38:23.187Z,29.42
2023-04-30T02:40:53.804Z,26.23
2023-04-30T02:43:23.819Z,24.75
2023-04-30T02:45:54.310Z,24.48
2023-04-30T02:48:24.767Z,23.40
2023-04-30T02:50:55.906Z,22.52
2023-04-30T02:53:25.869Z,23.35
2023-04-30T02:55:56.223Z,26.35
2023-04-30T02:58:26.144Z,25.58
2023-04-30T03:00:57.618Z,25.23
2023-04-30T03:03:27.919Z,25.77
2023-04-30T03:06:00.626Z,24.52
2023-04-30T03:08:30.695Z,26.70
2023-04-30T03:11:00.494Z,26.35
2023-04-30T03:13:30.977Z,27.95
2023-04-30T03:16:07.865Z,27.48
2023-04-30T03:18:38.275Z,27.17
2023-04-30T03:21:08.244Z,27.13
2023-04-30T03:23:40.107Z,27.13
2023-04-30T03:26:10.942Z,25.85
2023-04-30T03:28:41.281Z,26.90
2023-04-30T03:31:13.886Z,24.75
2023-04-30T03:33:44.381Z,27.83
2023-04-30T03:36:14.377Z,26.52
2023-04-30T03:38:44.813Z,25.45
2023-04-30T03:41:14.781Z,23.67
2023-04-30T03:43:44.530Z,16.92
2023-04-30T03:46:14.952Z,17.20
2023-04-30T03:48:45.044Z,16.88
2023-04-30T03:51:15.518Z,15.50
2023-04-30T03:53:45.447Z,21.38
2023-04-30T03:56:16.504Z,22.17
2023-04-30T03:58:46.456Z,24.20
2023-04-30T04:01:17.333Z,26.85
2023-04-30T04:03:47.770Z,32.03
2023-04-30T04:06:18.345Z,29.20
2023-04-30T04:08:49.174Z,28.85
2023-04-30T04:11:19.540Z,28.60
2023-04-30T04:13:49.481Z,25.77
2023-04-30T04:16:19.925Z,25.20
2023-04-30T04:18:49.908Z,21.90
2023-04-30T04:21:20.558Z,22.80
2023-04-30T04:23:50.810Z,25.90
2023-04-30T04:26:22.948Z,25.40
2023-04-30T04:28:54.009Z,21.52
2023-04-30T04:31:24.786Z,22.35
2023-04-30T04:33:59.769Z,25.25
2023-04-30T04:36:31.471Z,29.77
2023-04-30T04:39:04.990Z,23.88
2023-04-30T04:41:36.772Z,26.15
2023-04-30T04:44:06.868Z,26.27
2023-04-30T04:46:43.471Z,21.23
2023-04-30T04:49:13.822Z,19.83
2023-04-30T04:51:44.341Z,24.27
2023-04-30T04:54:14.304Z,20.13
2023-04-30T04:56:44.867Z,22.92
2023-04-30T04:59:15.032Z,25.63
2023-04-30T05:01:45.741Z,24.70
2023-04-30T05:04:15.723Z,21.80
2023-04-30T05:06:48.191Z,22.38
2023-04-30T05:09:18.661Z,20.65
2023-04-30T05:11:50.398Z,16.58
2023-04-30T05:14:22.030Z,20.50
2023-04-30T05:16:52.590Z,23.58
2023-04-30T05:19:23.303Z,22.95
2023-04-30T05:21:53.795Z,22.50
2023-04-30T05:24:23.764Z,23.08
2023-04-30T05:26:54.184Z,25.25
2023-04-30T05:29:23.944Z,24.05
2023-04-30T05:31:54.754Z,23.45
2023-04-30T05:34:24.944Z,25.83
2023-04-30T05:36:55.437Z,24.83
2023-04-30T05:39:25.307Z,23.70
2023-04-30T05:41:55.739Z,22.55
2023-04-30T05:44:25.681Z,21.15
2023-04-30T05:46:56.181Z,18.17
2023-04-30T05:49:26.287Z,21.90
2023-04-30T05:51:56.195Z,20.83
2023-04-30T05:54:26.551Z,19.48
2023-04-30T05:56:56.626Z,22.10
2023-04-30T05:59:27.158Z,19.35
2023-04-30T06:01:57.386Z,22.90
2023-04-30T06:04:27.834Z,23.08
2023-04-30T06:06:58.507Z,21.50
2023-04-30T06:09:28.775Z,22.60
2023-04-30T06:11:58.967Z,21.08
2023-04-30T06:14:29.398Z,21.67
2023-04-30T06:16:59.468Z,19.10
2023-04-30T06:19:29.867Z,19.48
2023-04-30T06:21:59.946Z,22.42
2023-04-30T06:24:31.540Z,22.27
2023-04-30T06:27:02.670Z,22.33
2023-04-30T06:29:32.981Z,22.38
2023-04-30T06:32:02.932Z,23.67
2023-04-30T06:34:33.506Z,22.98
2023-04-30T06:37:03.440Z,22.00
2023-04-30T06:39:33.215Z,23.58
2023-04-30T06:42:03.609Z,21.65
2023-04-30T06:44:34.226Z,21.00
2023-04-30T06:47:04.614Z,21.90
2023-04-30T06:49:34.527Z,21.65
2023-04-30T06:52:05.713Z,21.15
2023-04-30T06:54:35.654Z,24.85
2023-04-30T06:57:06.026Z,24.38
2023-04-30T06:59:35.933Z,22.58
2023-04-30T07:02:06.294Z,23.67
2023-04-30T07:04:36.533Z,22.38
2023-04-30T07:07:07.057Z,24.83
2023-04-30T07:09:37.621Z,22.63
2023-04-30T07:12:08.019Z,22.02
2023-04-30T07:14:37.906Z,20.58
2023-04-30T07:17:08.369Z,20.27
2023-04-30T07:19:38.353Z,19.13
2023-04-30T07:22:08.679Z,18.10
2023-04-30T07:24:38.721Z,18.75
2023-04-30T07:27:09.042Z,18.83
2023-04-30T07:29:38.925Z,17.98
2023-04-30T07:32:09.310Z,18.92
2023-04-30T07:34:39.453Z,12.48
2023-04-30T07:37:10.843Z,14.05
2023-04-30T07:39:40.854Z,14.60
2023-04-30T07:42:11.205Z,11.43
2023-04-30T07:44:42.315Z,11.35
2023-04-30T07:47:12.750Z,10.98
2023-04-30T07:49:42.817Z,10.07
2023-04-30T07:52:13.647Z,8.93
2023-04-30T07:54:43.671Z,7.95
2023-04-30T07:57:14.205Z,8.23
2023-04-30T07:59:44.122Z,8.38
2023-04-30T08:02:15.413Z,7.55
2023-04-30T08:04:45.492Z,7.53
2023-04-30T08:07:17.113Z,7.68
2023-04-30T08:09:47.016Z,7.07
2023-04-30T08:12:19.858Z,7.25
2023-04-30T08:14:49.786Z,6.95
2023-04-30T08:17:20.184Z,6.50
2023-04-30T08:19:50.200Z,6.43
2023-04-30T08:22:20.576Z,6.57
2023-04-30T08:24:50.658Z,6.32
2023-04-30T08:27:20.984Z,6.15
2023-04-30T08:29:50.927Z,5.20
2023-04-30T08:32:21.584Z,5.57
2023-04-30T08:34:51.563Z,6.28
2023-04-30T08:37:22.012Z,5.38
2023-04-30T08:39:51.969Z,5.57
2023-04-30T08:42:26.119Z,5.50
2023-04-30T08:44:56.073Z,5.93
2023-04-30T08:47:28.315Z,5.18
2023-04-30T08:49:58.374Z,5.43
2023-04-30T08:52:31.722Z,5.40
2023-04-30T08:55:03.451Z,5.25
2023-04-30T08:57:33.753Z,5.22
2023-04-30T09:00:03.745Z,5.30
2023-04-30T09:02:35.256Z,5.10
2023-04-30T09:05:09.014Z,5.75
2023-04-30T09:08:01.055Z,4.90
2023-04-30T09:10:37.406Z,5.05
2023-04-30T09:13:10.422Z,5.00
2023-04-30T09:18:19.203Z,5.00
2023-04-30T09:21:04.057Z,4.95
2023-04-30T09:23:34.422Z,5.40
2023-04-30T09:26:05.086Z,4.60
2023-04-30T09:28:36.269Z,5.10
2023-04-30T09:31:20.480Z,5.35
2023-04-30T09:33:50.903Z,4.72
2023-04-30T09:36:20.828Z,4.80
2023-04-30T09:38:51.256Z,4.50
2023-04-30T09:41:25.526Z,5.03
2023-04-30T09:43:57.430Z,4.63
2023-04-30T09:46:39.403Z,5.57
2023-04-30T09:49:13.056Z,5.97
2023-04-30T09:51:57.688Z,5.53
2023-04-30T09:54:31.504Z,5.40
2023-04-30T09:57:03.320Z,5.35
2023-04-30T09:59:39.078Z,5.03
2023-04-30T10:02:10.874Z,5.18
2023-04-30T10:04:46.617Z,5.30
2023-04-30T10:07:22.990Z,5.35
2023-04-30T10:09:57.708Z,5.45
2023-04-30T10:12:44.759Z,5.05
2023-04-30T10:15:26.973Z,5.20
2023-04-30T10:18:05.922Z,4.68
2023-04-30T10:20:38.551Z,5.10
2023-04-30T10:23:09.712Z,4.63
2023-04-30T10:25:42.083Z,4.32
2023-04-30T10:28:13.763Z,4.65
2023-04-30T10:30:46.956Z,4.18
2023-04-30T10:33:26.621Z,3.72
2023-04-30T10:36:06.980Z,3.40
2023-04-30T10:38:39.129Z,3.80
2023-04-30T10:41:10.704Z,4.00
2023-04-30T10:43:40.813Z,3.75
2023-04-30T10:46:11.191Z,3.70
2023-04-30T10:48:41.206Z,3.47
2023-04-30T10:51:11.646Z,3.10
2023-04-30T10:53:44.209Z,3.70
2023-04-30T10:56:14.566Z,3.38
2023-04-30T10:58:45.241Z,3.20
2023-04-30T11:01:17.098Z,3.28
2023-04-30T11:04:07.397Z,3.40
2023-04-30T11:07:13.861Z,3.10
2023-04-30T11:09:46.542Z,2.80
2023-04-30T11:12:32.020Z,2.90
2023-04-30T11:15:17.712Z,2.97
2023-04-30T11:17:50.174Z,2.58
2023-04-30T11:20:25.825Z,2.60
2023-04-30T11:23:28.142Z,2.30
2023-04-30T11:28:42.522Z,2.28
2023-04-30T11:31:14.115Z,2.60
2023-04-30T11:33:45.493Z,2.50
2023-04-30T11:36:16.256Z,2.15
2023-04-30T11:38:46.948Z,2.38
2023-04-30T11:41:17.217Z,2.13
2023-04-30T11:43:47.643Z,1.90
2023-04-30T11:46:21.237Z,1.90
2023-04-30T11:48:52.563Z,1.90
2023-04-30T11:51:25.203Z,2.25
2023-04-30T11:53:55.873Z,2.30
2023-04-30T11:56:27.352Z,2.47
2023-04-30T11:58:57.787Z,1.80
2023-04-30T12:01:30.567Z,1.85
2023-04-30T12:04:01.692Z,1.90
2023-04-30T12:06:32.361Z,1.75
2023-04-30T12:09:13.062Z,1.80
2023-04-30T12:11:43.232Z,1.90
2023-04-30T12:14:13.788Z,1.67
2023-04-30T12:16:52.211Z,1.60
2023-04-30T12:19:28.111Z,1.52
2023-04-30T12:21:58.252Z,1.38
2023-04-30T12:24:29.164Z,1.52
2023-04-30T12:27:03.191Z,1.30
2023-04-30T12:29:34.397Z,1.48
2023-04-30T12:32:04.960Z,1.40
2023-04-30T12:34:35.342Z,1.25
2023-04-30T12:37:05.088Z,1.40
2023-04-30T12:39:37.038Z,1.23
2023-04-30T12:42:07.425Z,1.27
2023-04-30T12:44:47.196Z,1.40
2023-04-30T12:47:18.137Z,1.08
2023-04-30T12:49:48.716Z,1.13
2023-04-30T12:52:18.741Z,1.50
2023-04-30T12:54:49.110Z,1.63
2023-04-30T12:57:18.993Z,1.35
2023-04-30T12:59:55.272Z,1.67
2023-04-30T13:02:27.076Z,1.45
2023-04-30T13:04:58.056Z,1.00
2023-04-30T13:07:28.104Z,1.00
2023-04-30T13:09:58.632Z,1.08
2023-04-30T13:12:28.545Z,0.88
2023-04-30T13:14:58.618Z,1.10
2023-04-30T13:17:29.032Z,0.95
2023-04-30T13:19:59.038Z,0.80
2023-04-30T13:22:30.740Z,1.08
2023-04-30T13:25:01.039Z,0.93
2023-04-30T13:27:31.341Z,0.98
2023-04-30T13:30:02.706Z,1.10
2023-04-30T13:35:02.403Z,1.10
2023-04-30T13:37:36.822Z,0.90
2023-04-30T13:40:11.151Z,1.00
2023-04-30T13:42:42.813Z,0.77
2023-04-30T13:45:13.954Z,1.00
2023-04-30T13:47:43.940Z,0.80
2023-04-30T13:50:14.435Z,0.90
2023-04-30T13:52:44.517Z,0.90
2023-04-30T13:55:15.020Z,1.05
2023-04-30T13:57:44.996Z,1.00
2023-04-30T14:00:17.172Z,1.08
2023-04-30T14:05:17.113Z,0.93
2023-04-30T14:07:47.031Z,0.90
2023-04-30T14:10:17.423Z,1.40
2023-04-30T14:12:47.639Z,1.10
2023-04-30T14:15:18.147Z,1.02
2023-04-30T14:17:48.090Z,1.20
2023-04-30T14:20:18.497Z,1.10
2023-04-30T14:22:48.710Z,1.58
2023-04-30T14:25:19.259Z,1.35
2023-04-30T14:27:49.329Z,1.38
2023-04-30T14:30:19.774Z,1.83
2023-04-30T14:32:49.799Z,1.30
2023-04-30T14:35:20.337Z,1.77
2023-04-30T14:37:50.296Z,1.30
2023-04-30T14:40:21.045Z,1.20
2023-04-30T14:42:51.694Z,1.38
2023-04-30T14:45:22.171Z,1.20
2023-04-30T14:47:52.112Z,1.05
2023-04-30T14:50:22.566Z,1.20
2023-04-30T14:52:52.826Z,0.98
2023-04-30T14:55:23.200Z,1.27
2023-04-30T14:57:53.106Z,0.95
2023-04-30T15:00:23.472Z,1.08
2023-04-30T15:02:55.320Z,1.67
2023-04-30T15:05:25.860Z,1.00
2023-04-30T15:07:55.569Z,0.82
2023-04-30T15:10:26.428Z,1.00
2023-04-30T15:12:56.309Z,0.90
2023-04-30T15:15:30.269Z,1.20
2023-04-30T15:18:00.585Z,1.23
2023-04-30T15:20:31.010Z,0.70
2023-04-30T15:23:01.173Z,1.05
2023-04-30T15:25:31.579Z,0.68
2023-04-30T15:28:02.599Z,0.93
2023-04-30T15:30:33.847Z,1.48
2023-04-30T15:33:04.564Z,0.90
2023-04-30T15:35:34.982Z,0.98
2023-04-30T15:38:04.698Z,0.80
2023-04-30T15:40:35.069Z,0.82
2023-04-30T15:43:06.878Z,1.50
2023-04-30T15:45:37.464Z,0.80
2023-04-30T15:48:07.768Z,1.00
2023-04-30T15:50:38.250Z,1.13
2023-04-30T15:53:08.218Z,1.17
2023-04-30T15:55:39.748Z,1.58
2023-04-30T15:58:09.854Z,0.80
2023-04-30T16:00:40.884Z,0.90
2023-04-30T16:03:10.868Z,1.05
2023-04-30T16:05:42.432Z,0.85
2023-04-30T16:08:13.290Z,1.10
2023-04-30T16:10:44.557Z,1.20
2023-04-30T16:13:15.045Z,1.08
2023-04-30T16:15:45.468Z,1.10
2023-04-30T16:18:15.522Z,0.90
2023-04-30T16:20:48.369Z,0.85
2023-04-30T16:23:18.369Z,1.08
2023-04-30T16:25:48.767Z,0.88
2023-04-30T16:28:18.654Z,0.98
2023-04-30T16:30:49.282Z,0.80
2023-04-30T16:33:19.293Z,1.42
2023-04-30T16:35:50.099Z,0.93
2023-04-30T16:38:20.050Z,0.90
2023-04-30T16:40:51.325Z,0.80
2023-04-30T16:43:21.274Z,0.50
2023-04-30T16:45:51.850Z,0.93
2023-04-30T16:48:22.059Z,0.80
2023-04-30T16:50:52.654Z,0.90
2023-04-30T16:53:23.053Z,0.85
2023-04-30T16:55:54.058Z,0.90
2023-04-30T16:58:24.018Z,0.90
2023-04-30T17:00:57.195Z,0.98
2023-04-30T17:03:27.240Z,0.77
2023-04-30T17:05:57.809Z,0.63
2023-04-30T17:08:27.828Z,1.00
2023-04-30T17:10:58.435Z,0.90
2023-04-30T17:13:28.467Z,0.88
2023-04-30T17:16:02.053Z,1.00
2023-04-30T17:18:32.328Z,0.70
2023-04-30T17:21:02.677Z,1.13
2023-04-30T17:23:33.051Z,0.85
2023-04-30T17:26:05.009Z,1.58
2023-04-30T17:31:07.882Z,0.95
2023-04-30T17:33:37.880Z,0.73
2023-04-30T17:36:10.065Z,0.50
2023-04-30T17:38:40.405Z,0.93
2023-04-30T17:41:10.818Z,0.68
2023-04-30T17:43:40.980Z,1.00
2023-04-30T17:46:11.741Z,0.98
2023-04-30T17:48:41.841Z,0.98
2023-04-30T17:51:12.400Z,0.95
2023-04-30T17:53:42.419Z,0.55
2023-04-30T17:56:13.386Z,0.77
2023-04-30T17:58:43.296Z,0.60
2023-04-30T18:01:14.343Z,1.00
2023-04-30T18:06:14.517Z,0.68
2023-04-30T18:08:45.303Z,0.73
2023-04-30T18:11:15.883Z,0.88
2023-04-30T18:13:46.068Z,0.75
2023-04-30T18:16:16.449Z,0.80
2023-04-30T18:18:46.183Z,0.98
2023-04-30T18:21:16.508Z,0.80
2023-04-30T18:23:46.216Z,0.63
2023-04-30T18:26:19.331Z,0.70
2023-04-30T18:28:50.789Z,0.60
2023-04-30T18:31:21.983Z,0.80
2023-04-30T18:33:51.943Z,0.57
2023-04-30T18:36:22.424Z,0.90
2023-04-30T18:38:52.960Z,0.88
2023-04-30T18:41:23.419Z,0.82
2023-04-30T18:43:53.327Z,0.80
2023-04-30T18:46:24.173Z,0.80
2023-04-30T18:48:54.569Z,0.80
2023-04-30T18:51:24.406Z,0.68
2023-04-30T18:53:55.156Z,1.48
2023-04-30T18:56:25.790Z,1.27
2023-04-30T18:58:56.185Z,0.90
2023-04-30T19:01:28.316Z,0.80
2023-04-30T19:03:58.829Z,1.20
2023-04-30T19:06:29.347Z,1.10
2023-04-30T19:09:00.815Z,1.05
2023-04-30T19:11:30.898Z,0.70
2023-04-30T19:14:01.211Z,1.10
2023-04-30T19:16:31.598Z,0.80
2023-04-30T19:19:02.124Z,1.17
2023-04-30T19:21:33.533Z,1.23
2023-04-30T19:24:07.065Z,1.00
2023-04-30T19:26:38.573Z,0.95
2023-04-30T19:29:08.886Z,0.93
2023-04-30T19:31:39.002Z,0.60
2023-04-30T19:34:09.361Z,0.93
2023-04-30T19:36:39.284Z,0.98
2023-04-30T19:39:11.881Z,1.00
2023-04-30T19:41:42.109Z,1.40
2023-04-30T19:44:12.754Z,1.27
2023-04-30T19:46:43.498Z,1.00
2023-04-30T19:49:14.119Z,1.02
2023-04-30T19:51:44.159Z,1.00
2023-04-30T19:54:15.368Z,0.88
2023-04-30T19:56:45.751Z,0.80
2023-04-30T19:59:16.162Z,0.80
2023-04-30T20:01:46.486Z,1.02
2023-04-30T20:04:16.836Z,0.68
2023-04-30T20:06:48.643Z,0.85
2023-04-30T20:11:50.772Z,1.00
2023-04-30T20:14:21.199Z,0.95
2023-04-30T20:16:55.383Z,1.27
2023-04-30T20:19:26.585Z,1.25
2023-04-30T20:21:56.488Z,0.88
2023-04-30T20:24:26.869Z,1.17
2023-04-30T20:26:56.793Z,1.27
2023-04-30T20:29:27.097Z,1.40
2023-04-30T20:31:59.547Z,1.38
2023-04-30T20:34:30.169Z,1.50
2023-04-30T20:37:00.855Z,1.42
2023-04-30T20:39:31.288Z,1.92
2023-04-30T20:42:02.510Z,1.85
2023-04-30T20:44:32.854Z,1.25
2023-04-30T20:47:06.523Z,1.10
2023-04-30T20:49:37.040Z,1.40
2023-04-30T20:52:09.976Z,1.35
2023-04-30T20:54:40.643Z,1.58
2023-04-30T20:57:10.806Z,1.20
2023-04-30T20:59:41.209Z,1.15
2023-04-30T21:02:11.416Z,1.48
2023-04-30T21:04:41.964Z,1.58
2023-04-30T21:07:11.973Z,1.52
2023-04-30T21:09:42.741Z,4.75
2023-04-30T21:12:14.194Z,1.98
2023-04-30T21:14:44.548Z,1.65
2023-04-30T21:17:15.739Z,1.60
2023-04-30T21:19:46.037Z,1.45
2023-04-30T21:22:16.050Z,1.70
2023-04-30T21:24:46.371Z,1.45
2023-04-30T21:27:16.306Z,1.17
2023-04-30T21:29:47.976Z,1.52
2023-04-30T21:32:18.875Z,1.83
2023-04-30T21:34:49.387Z,2.15
2023-04-30T21:37:19.451Z,1.50
2023-04-30T21:39:49.802Z,1.35
2023-04-30T21:42:19.798Z,2.10
2023-04-30T21:44:50.213Z,2.20
2023-04-30T21:47:20.098Z,1.67
2023-04-30T21:49:49.780Z,1.50
2023-04-30T21:52:20.294Z,1.35
2023-04-30T21:54:52.959Z,1.60
2023-04-30T21:57:23.348Z,1.65
2023-04-30T21:59:53.354Z,1.55
2023-04-30T22:02:24.610Z,1.55
2023-04-30T22:04:55.181Z,1.38
2023-04-30T22:07:25.737Z,0.88
2023-04-30T22:09:56.003Z,1.30
2023-04-30T22:12:27.091Z,1.42
2023-04-30T22:14:57.299Z,1.20
2023-04-30T22:17:28.660Z,1.30
2023-04-30T22:19:58.985Z,1.30
2023-04-30T22:22:29.498Z,1.00
2023-04-30T22:24:59.378Z,1.20
2023-04-30T22:27:29.781Z,1.10
2023-04-30T22:30:00.194Z,0.90
2023-04-30T22:32:30.599Z,1.17
2023-04-30T22:35:12.285Z,1.30
2023-04-30T22:37:42.646Z,1.50
2023-04-30T22:40:12.979Z,1.80
2023-04-30T22:42:44.232Z,1.90
2023-04-30T22:45:14.429Z,2.10
2023-04-30T22:47:46.869Z,1.77
2023-04-30T22:50:16.891Z,2.20
2023-04-30T22:52:47.867Z,2.10
2023-04-30T22:55:18.012Z,4.28
2023-04-30T22:57:48.322Z,5.97
2023-04-30T23:00:19.935Z,6.47
2023-04-30T23:02:51.238Z,6.55
2023-04-30T23:05:21.267Z,5.35
2023-04-30T23:07:51.724Z,5.93
2023-04-30T23:10:21.689Z,5.13
2023-04-30T23:12:52.198Z,3.95
2023-04-30T23:15:22.249Z,4.93
2023-04-30T23:17:52.841Z,4.75
2023-04-30T23:20:23.699Z,4.10
2023-04-30T23:22:54.064Z,4.35
2023-04-30T23:25:24.048Z,4.20
2023-04-30T23:27:55.034Z,3.80
2023-04-30T23:30:24.964Z,3.17
2023-04-30T23:32:55.797Z,4.05
2023-04-30T23:35:25.786Z,3.78
2023-04-30T23:37:56.201Z,3.45
2023-04-30T23:40:26.091Z,4.43
2023-04-30T23:42:56.456Z,4.55
2023-04-30T23:45:26.465Z,6.18
2023-04-30T23:47:56.815Z,6.18
2023-04-30T23:50:27.343Z,5.60
2023-04-30T23:52:57.767Z,5.45
2023-04-30T23:55:27.806Z,5.30
2023-04-30T23:57:58.113Z,5.15
